createdAt,value
2022-08-07T00:00:31.159Z,101674.56
2022-08-07T00:02:57.627Z,101674.81
2022-08-07T00:05:24.990Z,101674.84
2022-08-07T00:07:59.810Z,101672.09
2022-08-07T00:10:30.411Z,101666.66
2022-08-07T00:13:00.748Z,101670.19
2022-08-07T00:15:38.015Z,101670.44
2022-08-07T00:18:19.378Z,101678.06
2022-08-07T00:20:47.721Z,101666.09
2022-08-07T00:23:14.221Z,101664.47
2022-08-07T00:25:41.583Z,101661.47
2022-08-07T00:28:08.482Z,101664.47
2022-08-07T00:30:37.127Z,101662.31
2022-08-07T00:33:03.539Z,101666.59
2022-08-07T00:35:30.395Z,101666.03
2022-08-07T00:37:58.748Z,101660.09
2022-08-07T00:40:39.488Z,101659.56
2022-08-07T00:43:10.016Z,101661.72
2022-08-07T00:45:40.882Z,101660.09
2022-08-07T00:48:18.543Z,101655.72
2022-08-07T00:50:51.813Z,101656.25
2022-08-07T00:53:20.299Z,101657.03
2022-08-07T00:56:00.409Z,101659.75
2022-08-07T00:58:29.965Z,101653.44
2022-08-07T01:00:56.353Z,101666.81
2022-08-07T01:03:54.503Z,101662.47
2022-08-07T01:06:09.822Z,101657.91
2022-08-07T01:08:51.426Z,101648.66
2022-08-07T01:12:27.377Z,101651.34
2022-08-07T01:14:07.846Z,101652.97
2022-08-07T01:16:36.026Z,101654.38
2022-08-07T01:19:04.602Z,101651.88
2022-08-07T01:21:41.252Z,101652.69
2022-08-07T01:24:09.159Z,101654.63
2022-08-07T01:26:36.661Z,101650.78
2022-08-07T01:29:05.147Z,101656.66
2022-08-07T01:31:41.787Z,101648.50
2022-08-07T01:34:09.365Z,101649.28
2022-08-07T01:36:40.403Z,101654.72
2022-08-07T01:39:09.982Z,101643.88
2022-08-07T01:41:37.661Z,101640.06
2022-08-07T01:44:05.949Z,101636.03
2022-08-07T01:46:32.446Z,101639.25
2022-08-07T01:48:59.860Z,101647.97
2022-08-07T01:52:01.663Z,101639.00
2022-08-07T01:54:32.459Z,101634.91
2022-08-07T01:57:06.860Z,101642.50
2022-08-07T01:59:44.087Z,101641.41
2022-08-07T02:03:05.606Z,101631.59
2022-08-07T02:05:07.449Z,101633.44
2022-08-07T02:07:50.057Z,101630.44
2022-08-07T02:10:21.672Z,101633.13
2022-08-07T02:12:51.086Z,101631.00
2022-08-07T02:15:23.189Z,101626.66
2022-08-07T02:17:54.919Z,101625.31
2022-08-07T02:20:24.538Z,101621.00
2022-08-07T02:22:59.900Z,101621.00
2022-08-07T02:26:10.187Z,101621.31
2022-08-07T02:28:25.330Z,101624.25
2022-08-07T02:30:53.647Z,101620.19
2022-08-07T02:33:20.566Z,101616.38
2022-08-07T02:36:30.296Z,101615.34
2022-08-07T02:38:38.248Z,101612.63
2022-08-07T02:41:05.224Z,101612.91
2022-08-07T02:43:39.603Z,101620.25
2022-08-07T02:46:08.342Z,101620.47
2022-08-07T02:48:35.007Z,101624.53
2022-08-07T02:51:07.083Z,101620.69
2022-08-07T02:53:55.733Z,101608.22
2022-08-07T02:56:23.263Z,101613.13
2022-08-07T02:58:55.369Z,101610.44
2022-08-07T03:01:35.126Z,101607.16
2022-08-07T03:04:03.211Z,101609.56
2022-08-07T03:06:35.143Z,101609.81
2022-08-07T03:09:03.550Z,101613.56
2022-08-07T03:11:33.000Z,101610.22
2022-08-07T03:14:06.134Z,101622.97
2022-08-07T03:16:33.927Z,101619.41
2022-08-07T03:19:00.403Z,101611.28
2022-08-07T03:21:28.483Z,101625.00
2022-08-07T03:24:20.967Z,101611.19
2022-08-07T03:26:51.289Z,101618.25
2022-08-07T03:29:29.218Z,101620.41
2022-08-07T03:31:56.804Z,101625.56
2022-08-07T03:34:27.276Z,101619.81
2022-08-07T03:36:54.824Z,101612.75
2022-08-07T03:39:56.506Z,101620.94
2022-08-07T03:42:12.504Z,101617.94
2022-08-07T03:44:39.857Z,101620.41
2022-08-07T03:47:13.124Z,101619.91
2022-08-07T03:49:42.475Z,101615.28
2022-08-07T03:52:22.657Z,101614.78
2022-08-07T03:54:54.861Z,101619.41
2022-08-07T03:58:35.020Z,101616.97
2022-08-07T04:00:14.736Z,101624.78
2022-08-07T04:02:41.510Z,101612.56
2022-08-07T04:05:09.110Z,101622.59
2022-08-07T04:07:42.444Z,101619.38
2022-08-07T04:10:15.423Z,101628.28
2022-08-07T04:12:42.286Z,101626.38
2022-08-07T04:15:10.158Z,101626.94
2022-08-07T04:18:31.335Z,101634.50
2022-08-07T04:20:25.398Z,101624.50
2022-08-07T04:22:53.634Z,101623.13
2022-08-07T04:25:29.300Z,101637.88
2022-08-07T04:27:59.302Z,101634.59
2022-08-07T04:30:39.285Z,101634.06
2022-08-07T04:33:15.679Z,101627.31
2022-08-07T04:35:50.577Z,101631.69
2022-08-07T04:38:18.616Z,101630.38
2022-08-07T04:40:51.844Z,101631.53
2022-08-07T04:44:11.301Z,101629.09
2022-08-07T04:46:35.955Z,101629.97
2022-08-07T04:50:12.117Z,101625.13
2022-08-07T04:53:03.002Z,101631.63
2022-08-07T04:58:24.300Z,101632.53
2022-08-07T04:58:49.683Z,101632.81
2022-08-07T05:01:30.198Z,101630.97
2022-08-07T05:04:21.555Z,101639.44
2022-08-07T05:07:01.126Z,101647.03
2022-08-07T05:10:11.048Z,101644.88
2022-08-07T05:12:53.056Z,101640.56
2022-08-07T05:15:26.894Z,101639.50
2022-08-07T05:18:08.747Z,101637.28
2022-08-07T05:20:50.226Z,101640.03
2022-08-07T05:23:29.108Z,101641.09
2022-08-07T05:26:13.027Z,101638.91
2022-08-07T05:28:48.597Z,101641.91
2022-08-07T05:31:20.093Z,101645.69
2022-08-07T05:34:01.132Z,101642.16
2022-08-07T05:36:32.354Z,101642.34
2022-08-07T05:40:06.792Z,101641.50
2022-08-07T05:42:01.651Z,101638.38
2022-08-07T05:44:33.537Z,101646.72
2022-08-07T05:47:01.612Z,101644.72
2022-08-07T05:49:46.603Z,101642.78
2022-08-07T05:52:13.243Z,101649.22
2022-08-07T05:54:53.546Z,101649.63
2022-08-07T05:57:26.725Z,101645.56
2022-08-07T05:59:59.076Z,101651.31
2022-08-07T06:02:29.587Z,101654.88
2022-08-07T06:05:01.903Z,101659.97
2022-08-07T06:08:05.322Z,101659.75
2022-08-07T06:10:17.408Z,101658.91
2022-08-07T06:12:45.441Z,101659.28
2022-08-07T06:15:16.260Z,101653.13
2022-08-07T06:17:53.635Z,101657.56
2022-08-07T06:20:25.216Z,101652.31
2022-08-07T06:23:02.251Z,101650.41
2022-08-07T06:25:40.747Z,101654.13
2022-08-07T06:28:27.946Z,101659.41
2022-08-07T06:30:55.859Z,101654.75
2022-08-07T06:33:22.899Z,101657.25
2022-08-07T06:36:12.179Z,101655.81
2022-08-07T06:38:36.218Z,101650.59
2022-08-07T06:41:09.761Z,101652.91
2022-08-07T06:43:46.372Z,101650.97
2022-08-07T06:46:14.267Z,101658.84
2022-08-07T06:48:42.044Z,101652.78
2022-08-07T06:51:15.530Z,101651.59
2022-08-07T06:55:28.865Z,101648.00
2022-08-07T06:56:48.641Z,101654.41
2022-08-07T07:00:17.647Z,101657.91
2022-08-07T07:02:49.097Z,101654.09
2022-08-07T07:05:04.435Z,101660.47
2022-08-07T07:07:59.471Z,101657.47
2022-08-07T07:10:32.943Z,101653.47
2022-08-07T07:13:55.959Z,101646.84
2022-08-07T07:16:11.138Z,101650.63
2022-08-07T07:18:48.887Z,101641.88
2022-08-07T07:21:19.536Z,101642.47
2022-08-07T07:24:08.528Z,101631.78
2022-08-07T07:26:37.768Z,101633.28
2022-08-07T07:29:38.580Z,101631.72
2022-08-07T07:32:02.305Z,101633.38
2022-08-07T07:34:32.810Z,101628.19
2022-08-07T07:37:14.408Z,101631.63
2022-08-07T07:39:54.278Z,101623.69
2022-08-07T07:42:29.979Z,101621.69
2022-08-07T07:45:01.861Z,101623.03
2022-08-07T07:47:30.002Z,101615.09
2022-08-07T07:50:34.440Z,101617.41
2022-08-07T07:53:00.702Z,101624.19
2022-08-07T07:55:37.694Z,101613.34
2022-08-07T07:58:14.210Z,101618.47
2022-08-07T08:00:49.715Z,101615.84
2022-08-07T08:04:06.152Z,101609.72
2022-08-07T08:06:11.582Z,101600.19
2022-08-07T08:08:41.976Z,101598.41
2022-08-07T08:11:16.508Z,101601.13
2022-08-07T08:13:54.115Z,101587.47
2022-08-07T08:16:26.511Z,101593.09
2022-08-07T08:18:57.933Z,101593.56
2022-08-07T08:21:25.616Z,101603.19
2022-08-07T08:24:18.618Z,101593.25
2022-08-07T08:27:09.387Z,101599.09
2022-08-07T08:29:54.289Z,101603.81
2022-08-07T08:32:25.753Z,101605.91
2022-08-07T08:35:09.555Z,101598.38
2022-08-07T08:37:59.190Z,101600.47
2022-08-07T08:40:30.630Z,101597.81
2022-08-07T08:43:32.098Z,101594.81
2022-08-07T08:46:32.031Z,101589.50
2022-08-07T08:49:06.874Z,101590.22
2022-08-07T08:51:49.929Z,101589.09
2022-08-07T08:54:44.984Z,101584.84
2022-08-07T08:57:27.041Z,101585.44
2022-08-07T09:00:02.090Z,101585.78
2022-08-07T09:02:36.554Z,101583.50
2022-08-07T09:05:31.940Z,101579.38
2022-08-07T09:08:42.307Z,101578.56
2022-08-07T09:11:54.588Z,101579.03
2022-08-07T09:16:25.381Z,101577.59
2022-08-07T09:18:05.972Z,101565.22
2022-08-07T09:21:00.842Z,101581.56
2022-08-07T09:24:31.343Z,101569.16
2022-08-07T09:26:32.306Z,101578.19
2022-08-07T09:30:00.584Z,101579.16
2022-08-07T09:32:31.107Z,101572.53
2022-08-07T09:36:05.384Z,101563.59
2022-08-07T09:38:05.173Z,101569.78
2022-08-07T09:41:11.022Z,101570.88
2022-08-07T09:44:20.043Z,101566.72
2022-08-07T09:47:55.246Z,101560.59
2022-08-07T09:50:19.259Z,101563.09
2022-08-07T09:52:52.095Z,101560.00
2022-08-07T09:56:03.933Z,101542.69
2022-08-07T09:58:56.171Z,101546.13
2022-08-07T10:02:02.819Z,101544.25
2022-08-07T10:04:47.673Z,101549.84
2022-08-07T10:07:55.663Z,101540.88
2022-08-07T10:13:29.757Z,101522.16
2022-08-07T10:16:53.284Z,101519.78
2022-08-07T10:19:37.773Z,101519.19
2022-08-07T10:22:33.798Z,101517.34
2022-08-07T10:25:42.995Z,101514.81
2022-08-07T10:28:22.339Z,101512.66
2022-08-07T10:31:31.514Z,101512.53
2022-08-07T10:34:46.847Z,101509.47
2022-08-07T10:38:00.684Z,101510.63
2022-08-07T10:40:33.222Z,101501.69
2022-08-07T10:43:14.023Z,101503.22
2022-08-07T10:45:58.295Z,101502.94
2022-08-07T10:48:35.928Z,101494.03
2022-08-07T10:51:16.910Z,101494.97
2022-08-07T10:54:18.380Z,101499.31
2022-08-07T10:57:34.256Z,101491.28
2022-08-07T11:00:04.199Z,101493.84
2022-08-07T11:02:57.323Z,101490.03
2022-08-07T11:05:35.652Z,101482.66
2022-08-07T11:08:39.026Z,101484.97
2022-08-07T11:11:21.079Z,101480.34
2022-08-07T11:14:44.240Z,101476.13
2022-08-07T11:17:13.051Z,101476.75
2022-08-07T11:19:59.793Z,101476.31
2022-08-07T11:23:01.613Z,101473.66
2022-08-07T11:25:36.079Z,101472.94
2022-08-07T11:28:21.093Z,101473.03
2022-08-07T11:31:12.889Z,101467.00
2022-08-07T11:33:59.474Z,101458.75
2022-08-07T11:36:35.683Z,101457.19
2022-08-07T11:39:59.024Z,101458.13
2022-08-07T11:43:00.865Z,101440.91
2022-08-07T11:45:50.228Z,101428.00
2022-08-07T11:49:51.130Z,101433.13
2022-08-07T11:52:15.630Z,101426.44
2022-08-07T11:55:02.857Z,101437.59
2022-08-07T11:58:01.744Z,101434.75
2022-08-07T12:01:02.126Z,101438.72
2022-08-07T12:03:53.017Z,101422.19
2022-08-07T12:06:40.334Z,101426.97
2022-08-07T12:09:42.626Z,101425.25
2022-08-07T12:12:18.220Z,101418.56
2022-08-07T12:15:00.453Z,101418.84
2022-08-07T12:17:59.217Z,101421.06
2022-08-07T12:20:32.985Z,101417.50
2022-08-07T12:24:04.860Z,101408.94
2022-08-07T12:26:30.963Z,101413.75
2022-08-07T12:29:41.057Z,101408.94
2022-08-07T12:32:19.474Z,101410.69
2022-08-07T12:34:49.177Z,101407.25
2022-08-07T12:37:23.645Z,101408.78
2022-08-07T12:39:57.635Z,101413.59
2022-08-07T12:42:31.960Z,101409.50
2022-08-07T12:45:00.575Z,101408.03
2022-08-07T12:47:41.871Z,101397.34
2022-08-07T12:50:39.315Z,101405.72
2022-08-07T12:54:03.290Z,101401.56
2022-08-07T12:56:36.838Z,101393.03
2022-08-07T12:59:08.318Z,101393.59
2022-08-07T13:02:09.715Z,101395.91
2022-08-07T13:05:14.919Z,101389.50
2022-08-07T13:08:19.123Z,101391.16
2022-08-07T13:10:57.795Z,101379.56
2022-08-07T13:13:48.550Z,101384.94
2022-08-07T13:16:26.932Z,101369.16
2022-08-07T13:19:18.359Z,101372.78
2022-08-07T13:22:38.998Z,101369.22
2022-08-07T13:25:10.315Z,101370.16
2022-08-07T13:28:11.078Z,101365.03
2022-08-07T13:30:48.736Z,101365.28
2022-08-07T13:34:32.179Z,101366.84
2022-08-07T13:36:20.954Z,101359.56
2022-08-07T13:39:12.989Z,101361.03
2022-08-07T13:41:55.006Z,101362.56
2022-08-07T13:44:26.208Z,101350.47
2022-08-07T13:46:55.771Z,101353.00
2022-08-07T13:50:33.011Z,101347.91
2022-08-07T13:52:30.535Z,101343.16
2022-08-07T13:55:00.606Z,101338.00
2022-08-07T13:57:32.200Z,101345.44
2022-08-07T14:00:06.117Z,101344.03
2022-08-07T14:02:39.535Z,101340.38
2022-08-07T14:05:22.064Z,101347.69
2022-08-07T14:08:00.667Z,101336.88
2022-08-07T14:10:42.460Z,101338.47
2022-08-07T14:13:16.115Z,101336.50
2022-08-07T14:15:50.475Z,101337.84
2022-08-07T14:18:30.456Z,101327.94
2022-08-07T14:21:20.717Z,101326.66
2022-08-07T14:24:01.963Z,101326.00
2022-08-07T14:26:37.627Z,101327.56
2022-08-07T14:30:07.229Z,101326.97
2022-08-07T14:32:00.275Z,101315.47
2022-08-07T14:34:30.833Z,101318.09
2022-08-07T14:37:03.127Z,101321.66
2022-08-07T14:40:16.418Z,101317.16
2022-08-07T14:42:31.468Z,101316.41
2022-08-07T14:45:22.405Z,101308.09
2022-08-07T14:47:53.033Z,101300.13
2022-08-07T14:50:27.891Z,101301.00
2022-08-07T14:52:55.958Z,101299.91
2022-08-07T14:55:35.578Z,101301.38
2022-08-07T14:58:31.366Z,101295.63
2022-08-07T15:01:00.104Z,101293.19
2022-08-07T15:03:52.671Z,101294.91
2022-08-07T15:06:25.260Z,101299.97
2022-08-07T15:08:54.884Z,101291.38
2022-08-07T15:11:51.090Z,101291.59
2022-08-07T15:14:17.135Z,101290.63
2022-08-07T15:16:55.073Z,101285.97
2022-08-07T15:20:31.082Z,101292.41
2022-08-07T15:22:33.456Z,101287.19
2022-08-07T15:28:30.920Z,101289.63
2022-08-07T15:37:03.010Z,101273.47
2022-08-07T15:39:05.507Z,101273.59
2022-08-07T15:42:44.206Z,101278.75
2022-08-07T15:48:01.452Z,101274.72
2022-08-07T15:53:51.597Z,101265.03
2022-08-07T15:56:15.984Z,101274.97
2022-08-07T15:58:52.265Z,101269.00
2022-08-07T16:01:38.482Z,101274.53
2022-08-07T16:04:14.560Z,101271.16
2022-08-07T16:06:53.252Z,101273.03
2022-08-07T16:09:34.918Z,101264.03
2022-08-07T16:12:39.154Z,101265.69
2022-08-07T16:15:51.640Z,101269.72
2022-08-07T16:18:49.929Z,101268.25
2022-08-07T16:22:06.620Z,101259.88
2022-08-07T16:24:56.676Z,101266.44
2022-08-07T16:27:46.956Z,101264.13
2022-08-07T16:30:31.831Z,101262.72
2022-08-07T16:34:02.579Z,101260.44
2022-08-07T16:36:31.484Z,101255.25
2022-08-07T16:39:20.859Z,101255.72
2022-08-07T16:42:22.376Z,101252.06
2022-08-07T16:45:24.581Z,101257.13
2022-08-07T16:48:07.962Z,101257.16
2022-08-07T16:51:21.591Z,101254.91
2022-08-07T16:54:06.025Z,101258.03
2022-08-07T16:58:02.232Z,101259.50
2022-08-07T17:00:29.277Z,101259.00
2022-08-07T17:03:59.815Z,101259.28
2022-08-07T17:06:45.800Z,101249.00
2022-08-07T17:10:06.042Z,101250.16
2022-08-07T17:12:34.510Z,101258.41
2022-08-07T17:15:16.344Z,101255.63
2022-08-07T17:17:47.514Z,101247.75
2022-08-07T17:20:35.088Z,101251.25
2022-08-07T17:23:23.133Z,101253.00
2022-08-07T17:26:23.928Z,101251.41
2022-08-07T17:30:12.421Z,101251.25
2022-08-07T17:32:29.996Z,101258.84
2022-08-07T17:35:50.246Z,101252.38
2022-08-07T17:38:09.307Z,101245.84
2022-08-07T17:40:56.362Z,101250.84
2022-08-07T17:44:01.733Z,101250.41
2022-08-07T17:46:40.273Z,101246.81
2022-08-07T17:49:23.868Z,101254.66
2022-08-07T17:52:00.484Z,101252.16
2022-08-07T17:54:54.053Z,101242.53
2022-08-07T17:57:56.345Z,101243.59
2022-08-07T18:00:33.293Z,101245.56
2022-08-07T18:03:19.360Z,101239.81
2022-08-07T18:06:02.859Z,101235.38
2022-08-07T18:08:35.893Z,101251.66
2022-08-07T18:12:06.836Z,101255.84
2022-08-07T18:14:44.937Z,101252.28
2022-08-07T18:18:36.656Z,101253.69
2022-08-07T18:21:38.364Z,101258.97
2022-08-07T18:24:06.947Z,101251.53
2022-08-07T18:27:08.537Z,101260.84
2022-08-07T18:30:05.929Z,101260.28
2022-08-07T18:32:54.504Z,101268.28
2022-08-07T18:36:03.018Z,101269.91
2022-08-07T18:38:56.013Z,101270.25
2022-08-07T18:41:47.918Z,101269.34
2022-08-07T18:44:36.453Z,101272.56
2022-08-07T18:47:44.467Z,101279.72
2022-08-07T18:50:49.131Z,101281.22
2022-08-07T18:53:37.039Z,101285.56
2022-08-07T18:56:30.739Z,101284.06
2022-08-07T18:59:48.085Z,101286.97
2022-08-07T19:02:32.280Z,101293.81
2022-08-07T19:05:15.919Z,101293.81
2022-08-07T19:07:59.178Z,101305.63
2022-08-07T19:10:49.524Z,101305.75
2022-08-07T19:13:26.579Z,101305.16
2022-08-07T19:16:43.701Z,101314.06
2022-08-07T19:19:50.318Z,101307.97
2022-08-07T19:22:39.621Z,101313.69
2022-08-07T19:26:23.199Z,101317.59
2022-08-07T19:28:30.950Z,101317.59
2022-08-07T19:31:39.545Z,101319.44
2022-08-07T19:34:08.163Z,101325.47
2022-08-07T19:36:40.742Z,101334.59
2022-08-07T19:39:10.198Z,101329.81
2022-08-07T19:42:08.529Z,101330.06
2022-08-07T19:44:36.322Z,101332.38
2022-08-07T19:47:08.270Z,101336.22
2022-08-07T19:49:57.346Z,101336.28
2022-08-07T19:52:27.704Z,101341.06
2022-08-07T19:54:56.113Z,101342.50
2022-08-07T19:58:01.029Z,101345.91
2022-08-07T20:00:29.077Z,101338.78
2022-08-07T20:03:01.695Z,101340.09
2022-08-07T20:06:00.483Z,101339.63
2022-08-07T20:08:28.042Z,101331.56
2022-08-07T20:11:01.811Z,101340.72
2022-08-07T20:13:41.765Z,101345.63
2022-08-07T20:16:15.723Z,101336.00
2022-08-07T20:19:02.259Z,101342.50
2022-08-07T20:21:42.008Z,101338.25
2022-08-07T20:24:21.589Z,101343.22
2022-08-07T20:26:50.071Z,101342.22
2022-08-07T20:29:48.672Z,101350.38
2022-08-07T20:32:11.528Z,101337.31
2022-08-07T20:34:51.643Z,101342.50
2022-08-07T20:37:37.148Z,101349.91
2022-08-07T20:40:32.787Z,101346.53
2022-08-07T20:43:02.300Z,101344.75
2022-08-07T20:46:24.694Z,101346.38
2022-08-07T20:48:28.771Z,101340.88
2022-08-07T20:51:01.261Z,101349.09
2022-08-07T20:54:04.203Z,101337.97
2022-08-07T20:56:16.491Z,101333.94
2022-08-07T20:58:50.405Z,101344.41
2022-08-07T21:01:20.873Z,101344.75
2022-08-07T21:04:19.674Z,101350.41
2022-08-07T21:06:46.606Z,101348.94
2022-08-07T21:09:24.233Z,101344.75
2022-08-07T21:11:52.301Z,101348.31
2022-08-07T21:14:32.061Z,101349.59
2022-08-07T21:18:03.202Z,101348.59
2022-08-07T21:20:00.860Z,101350.53
2022-08-07T21:22:38.894Z,101346.00
2022-08-07T21:25:21.929Z,101351.84
2022-08-07T21:28:02.191Z,101345.56
2022-08-07T21:30:50.184Z,101355.72
2022-08-07T21:33:22.567Z,101355.53
2022-08-07T21:36:05.241Z,101353.41
2022-08-07T21:38:44.215Z,101358.97
2022-08-07T21:41:59.811Z,101357.91
2022-08-07T21:44:53.795Z,101357.91
2022-08-07T21:48:26.881Z,101364.59
2022-08-07T21:51:07.303Z,101364.19
2022-08-07T21:54:04.195Z,101366.47
2022-08-07T21:56:59.843Z,101360.22
2022-08-07T21:59:36.214Z,101362.25
2022-08-07T22:02:29.650Z,101368.47
2022-08-07T22:05:00.063Z,101361.13
2022-08-07T22:07:31.754Z,101375.50
2022-08-07T22:10:20.748Z,101374.69
2022-08-07T22:12:55.275Z,101369.31
2022-08-07T22:16:40.096Z,101379.25
2022-08-07T22:18:55.683Z,101374.63
2022-08-07T22:22:04.732Z,101364.50
2022-08-07T22:24:32.991Z,101380.59
2022-08-07T22:27:33.885Z,101370.56
2022-08-07T22:30:16.499Z,101378.84
2022-08-07T22:32:57.713Z,101373.06
2022-08-07T22:35:39.853Z,101378.41
2022-08-07T22:38:48.638Z,101377.16
2022-08-07T22:42:03.485Z,101383.00
2022-08-07T22:44:26.809Z,101394.00
2022-08-07T22:47:24.635Z,101384.72
2022-08-07T22:50:06.800Z,101394.09
2022-08-07T22:53:07.365Z,101395.25
2022-08-07T22:56:03.084Z,101393.06
2022-08-07T22:58:48.737Z,101390.84
2022-08-07T23:01:42.182Z,101389.31
2022-08-07T23:06:14.650Z,101387.03
2022-08-07T23:08:23.896Z,101396.72
2022-08-07T23:11:17.889Z,101396.25
2022-08-07T23:14:16.541Z,101391.06
2022-08-07T23:16:55.015Z,101393.00
2022-08-07T23:19:51.373Z,101389.25
2022-08-07T23:22:36.992Z,101388.13
2022-08-07T23:25:38.934Z,101383.53
2022-08-07T23:28:29.419Z,101382.75
2022-08-07T23:32:49.067Z,101382.78
2022-08-07T23:34:21.984Z,101385.63
2022-08-07T23:38:00.414Z,101384.38
2022-08-07T23:40:39.703Z,101382.94
2022-08-07T23:43:16.812Z,101396.00
2022-08-07T23:46:03.302Z,101396.84
2022-08-07T23:49:00.875Z,101396.75
2022-08-07T23:53:00.970Z,101392.41
2022-08-07T23:55:02.026Z,101391.38
2022-08-07T23:57:40.725Z,101395.19
